HUAL Seoul — LADO6 — position and weather

sailwx.info

Track history (hours):
 
Tides and Currents Weather Stations Pressure Air Temp Water Temp Dewpoint Dewpoint Depression Visibility Wind Speed Wind Dir Waves Ship Positions

HUAL Seoul

Last reported at 2017-Jan-11 09:17 UTC. Time now 2017-Jan-18 04:11 UTC.
Position N 15°06' W 018°00'.

Type: Cargo ship. MMSI: 257496000.

Date/timePositionNaut miles runAvg speedWind from/ knotsBaromVisibWave heightAir tempDewpointWater temp
2017-Jan-11 09:17N 15°06' W 018°00'1417.9
2017-Jan-11 08:32N 15°20' W 018°00'1717.9
2017-Jan-11 07:33N 15°37' W 018°00'2117.9
2017-Jan-11 06:23N 15°58' W 018°00'12717.9
2017-Jan-10 23:17N 18°05' W 018°01'1917.7
2017-Jan-10 22:13N 18°24' W 018°00'1317.9
2017-Jan-10 21:28N 18°37' W 018°01'2517.8
2017-Jan-10 20:04N 19°02' W 018°00'5217.9
2017-Jan-10 17:10N 19°54' W 018°00'48417.9
2017-Jan-09 14:08N 27°35' W 015°18'1018.0
2017-Jan-09 13:33N 27°44' W 015°12'1817.5
2017-Jan-09 12:33N 27°60' W 015°04'1817.7
2017-Jan-09 11:33N 28°16' W 014°57'1817.7
2017-Jan-09 10:33N 28°31' W 014°45'2318.1
2017-Jan-09 09:17N 28°48' W 014°29'1317.9
2017-Jan-09 08:33N 28°58' W 014°19'1817.9
2017-Jan-09 07:33N 29°12' W 014°06'1818.1
2017-Jan-09 06:33N 29°26' W 013°52'2018.1
2017-Jan-09 05:26N 29°41' W 013°37'1618.2
2017-Jan-09 04:33N 29°52' W 013°24'1818.3
2017-Jan-09 03:33N 30°05' W 013°09'1918.5
2017-Jan-09 02:33N 30°19' W 012°54'1918.1
2017-Jan-09 01:31N 30°32' W 012°38'48117.7
2017-Jan-07 22:22N 35°57' W 005°36'6 7.3
2017-Jan-07 21:34N 35°53' W 005°30'0 0.0
2017-Jan-07 20:33N 35°53' W 005°30'0 0.0
2017-Jan-07 19:27N 35°53' W 005°30'0 0.0
2017-Jan-07 18:27N 35°53' W 005°30'0 0.0
2017-Jan-07 15:33N 35°53' W 005°30'0 0.0
2017-Jan-07 14:24N 35°53' W 005°30'0 0.0
2017-Jan-07 13:30N 35°53' W 005°30'0 0.0
2017-Jan-07 08:30N 35°53' W 005°30'0 0.0
2017-Jan-07 07:17N 35°53' W 005°30'8 4.2
2017-Jan-07 05:15N 35°54' W 005°40'22213.2
2017-Jan-06 12:26N 37°36' W 009°47'1415.5
2017-Jan-06 11:33N 37°49' W 009°51'1615.6
2017-Jan-06 10:34N 38°04' W 009°57'1615.6
2017-Jan-06 09:33N 38°19' W 010°00'1615.6
2017-Jan-06 08:33N 38°35' W 010°04'1616.1
2017-Jan-06 07:33N 38°51' W 010°07'1615.9
2017-Jan-06 06:34N 39°07' W 010°08'1515.4
2017-Jan-06 05:34N 39°22' W 010°08'4715.5
2017-Jan-06 02:33N 40°09' W 010°06'393 8.3
2017-Jan-04 03:25N 45°13' W 004°28'1315.2
2017-Jan-04 02:34N 45°25' W 004°33'1515.0
2017-Jan-04 01:33N 45°40' W 004°40'3115.2
2017-Jan-03 23:30N 46°10' W 004°53'1716.6
2017-Jan-03 22:28N 46°26' W 005°00'3416.6
2017-Jan-03 20:27N 46°58' W 005°15'1617.2
2017-Jan-03 19:31N 47°14' W 005°22'16213.0
2017-Jan-03 07:05N 49°42' W 003°44'916.5
2017-Jan-03 06:34N 49°46' W 003°32'1717.1
2017-Jan-03 05:33N 49°54' W 003°09'1818.4
2017-Jan-03 04:33N 50°02' W 002°43'4418.9
2017-Jan-03 02:15N 50°18' W 001°40'1217.2
2017-Jan-03 01:33N 50°23' W 001°23'1616.0
2017-Jan-03 00:34N 50°32' W 001°02'1111.3
2017-Jan-02 23:33N 50°43' W 001°00'1212.4
2017-Jan-02 22:33N 50°48' W 001°19'7 6.8
2017-Jan-02 21:33N 50°53' W 001°24'0 0.0
2017-Jan-02 20:33N 50°54' W 001°24'0 0.0
2017-Jan-02 19:33N 50°54' W 001°24'0 0.0
2017-Jan-02 18:33N 50°54' W 001°24'0 0.0
2017-Jan-02 17:33N 50°54' W 001°24'0 0.0
2017-Jan-02 16:33N 50°54' W 001°24'0 0.0
2017-Jan-02 15:33N 50°54' W 001°24'0 0.0
2017-Jan-02 14:33N 50°53' W 001°24'0 0.0
2017-Jan-02 13:33N 50°53' W 001°24'0 0.0
2017-Jan-02 12:33N 50°54' W 001°24'0 0.0
2017-Jan-02 11:33N 50°53' W 001°24'0 0.0
2017-Jan-02 10:33N 50°54' W 001°24'0 0.0
2017-Jan-02 09:33N 50°53' W 001°24'0 0.0
2017-Jan-02 08:33N 50°54' W 001°24'0 0.1
2017-Jan-02 07:34N 50°53' W 001°24'7 6.6
2017-Jan-02 06:34N 50°48' W 001°18'1212.0
2017-Jan-02 05:34N 50°43' W 001°00'7 7.2
2017-Jan-02 04:33N 50°37' W 000°54'5 4.5
2017-Jan-02 03:33N 50°35' W 000°48'2 2.3
2017-Jan-02 02:33N 50°33' W 000°49'7 7.3
2017-Jan-02 01:33N 50°31' W 001°00'4 4.1
2017-Jan-02 00:33N 50°30' W 000°54'8 7.7
2017-Jan-01 23:33N 50°30' W 000°42'8 7.5
2017-Jan-01 22:33N 50°30' W 000°30'8 7.5
2017-Jan-01 21:33N 50°30' W 000°18'7 7.5
2017-Jan-01 20:33N 50°30' W 000°06'8 7.4
2017-Jan-01 19:32N 50°31' E 000°05'7 7.4
2017-Jan-01 18:33N 50°34' E 000°16'7 7.2
2017-Jan-01 17:33N 50°35' E 000°27'7 6.3
2017-Jan-01 16:30N 50°38' E 000°37'20 4.5
2017-Jan-01 12:11N 50°50' E 001°02'3 3.8
2017-Jan-01 11:20N 50°52' E 001°06'3 4.4
2017-Jan-01 10:33N 50°54' E 001°10'5 5.5
2017-Jan-01 09:33N 50°58' E 001°16'  
Track history (hours):
 
Tides and Currents Weather Stations Pressure Air Temp Water Temp Dewpoint Dewpoint Depression Visibility Wind Speed Wind Dir Waves Ship Positions

HUAL Seoul

Last reported at 2017-Jan-11 09:17 UTC. Time now 2017-Jan-18 04:11 UTC.
Position N 15°06' W 018°00'.

Type: Cargo ship. MMSI: 257496000.

Date/timePositionNaut miles runAvg speedWind from/ knotsBaromVisibWave heightAir tempDewpointWater temp
2017-Jan-11 09:17N 15°06' W 018°00'1417.9
2017-Jan-11 08:32N 15°20' W 018°00'1717.9
2017-Jan-11 07:33N 15°37' W 018°00'2117.9
2017-Jan-11 06:23N 15°58' W 018°00'12717.9
2017-Jan-10 23:17N 18°05' W 018°01'1917.7
2017-Jan-10 22:13N 18°24' W 018°00'1317.9
2017-Jan-10 21:28N 18°37' W 018°01'2517.8
2017-Jan-10 20:04N 19°02' W 018°00'5217.9
2017-Jan-10 17:10N 19°54' W 018°00'48417.9
2017-Jan-09 14:08N 27°35' W 015°18'1018.0
2017-Jan-09 13:33N 27°44' W 015°12'1817.5
2017-Jan-09 12:33N 27°60' W 015°04'1817.7
2017-Jan-09 11:33N 28°16' W 014°57'1817.7
2017-Jan-09 10:33N 28°31' W 014°45'2318.1
2017-Jan-09 09:17N 28°48' W 014°29'1317.9
2017-Jan-09 08:33N 28°58' W 014°19'1817.9
2017-Jan-09 07:33N 29°12' W 014°06'1818.1
2017-Jan-09 06:33N 29°26' W 013°52'2018.1
2017-Jan-09 05:26N 29°41' W 013°37'1618.2
2017-Jan-09 04:33N 29°52' W 013°24'1818.3
2017-Jan-09 03:33N 30°05' W 013°09'1918.5
2017-Jan-09 02:33N 30°19' W 012°54'1918.1
2017-Jan-09 01:31N 30°32' W 012°38'48117.7
2017-Jan-07 22:22N 35°57' W 005°36'6 7.3
2017-Jan-07 21:34N 35°53' W 005°30'0 0.0
2017-Jan-07 20:33N 35°53' W 005°30'0 0.0
2017-Jan-07 19:27N 35°53' W 005°30'0 0.0
2017-Jan-07 18:27N 35°53' W 005°30'0 0.0
2017-Jan-07 15:33N 35°53' W 005°30'0 0.0
2017-Jan-07 14:24N 35°53' W 005°30'0 0.0
2017-Jan-07 13:30N 35°53' W 005°30'0 0.0
2017-Jan-07 08:30N 35°53' W 005°30'0 0.0
2017-Jan-07 07:17N 35°53' W 005°30'8 4.2
2017-Jan-07 05:15N 35°54' W 005°40'22213.2
2017-Jan-06 12:26N 37°36' W 009°47'1415.5
2017-Jan-06 11:33N 37°49' W 009°51'1615.6
2017-Jan-06 10:34N 38°04' W 009°57'1615.6
2017-Jan-06 09:33N 38°19' W 010°00'1615.6
2017-Jan-06 08:33N 38°35' W 010°04'1616.1
2017-Jan-06 07:33N 38°51' W 010°07'1615.9
2017-Jan-06 06:34N 39°07' W 010°08'1515.4
2017-Jan-06 05:34N 39°22' W 010°08'4715.5
2017-Jan-06 02:33N 40°09' W 010°06'393 8.3
2017-Jan-04 03:25N 45°13' W 004°28'1315.2
2017-Jan-04 02:34N 45°25' W 004°33'1515.0
2017-Jan-04 01:33N 45°40' W 004°40'3115.2
2017-Jan-03 23:30N 46°10' W 004°53'1716.6
2017-Jan-03 22:28N 46°26' W 005°00'3416.6
2017-Jan-03 20:27N 46°58' W 005°15'1617.2
2017-Jan-03 19:31N 47°14' W 005°22'16213.0
2017-Jan-03 07:05N 49°42' W 003°44'916.5
2017-Jan-03 06:34N 49°46' W 003°32'1717.1
2017-Jan-03 05:33N 49°54' W 003°09'1818.4
2017-Jan-03 04:33N 50°02' W 002°43'4418.9
2017-Jan-03 02:15N 50°18' W 001°40'1217.2
2017-Jan-03 01:33N 50°23' W 001°23'1616.0
2017-Jan-03 00:34N 50°32' W 001°02'1111.3
2017-Jan-02 23:33N 50°43' W 001°00'1212.4
2017-Jan-02 22:33N 50°48' W 001°19'7 6.8
2017-Jan-02 21:33N 50°53' W 001°24'0 0.0
2017-Jan-02 20:33N 50°54' W 001°24'0 0.0
2017-Jan-02 19:33N 50°54' W 001°24'0 0.0
2017-Jan-02 18:33N 50°54' W 001°24'0 0.0
2017-Jan-02 17:33N 50°54' W 001°24'0 0.0
2017-Jan-02 16:33N 50°54' W 001°24'0 0.0
2017-Jan-02 15:33N 50°54' W 001°24'0 0.0
2017-Jan-02 14:33N 50°53' W 001°24'0 0.0
2017-Jan-02 13:33N 50°53' W 001°24'0 0.0
2017-Jan-02 12:33N 50°54' W 001°24'0 0.0
2017-Jan-02 11:33N 50°53' W 001°24'0 0.0
2017-Jan-02 10:33N 50°54' W 001°24'0 0.0
2017-Jan-02 09:33N 50°53' W 001°24'0 0.0
2017-Jan-02 08:33N 50°54' W 001°24'0 0.1
2017-Jan-02 07:34N 50°53' W 001°24'7 6.6
2017-Jan-02 06:34N 50°48' W 001°18'1212.0
2017-Jan-02 05:34N 50°43' W 001°00'7 7.2
2017-Jan-02 04:33N 50°37' W 000°54'5 4.5
2017-Jan-02 03:33N 50°35' W 000°48'2 2.3
2017-Jan-02 02:33N 50°33' W 000°49'7 7.3
2017-Jan-02 01:33N 50°31' W 001°00'4 4.1
2017-Jan-02 00:33N 50°30' W 000°54'8 7.7
2017-Jan-01 23:33N 50°30' W 000°42'8 7.5
2017-Jan-01 22:33N 50°30' W 000°30'8 7.5
2017-Jan-01 21:33N 50°30' W 000°18'7 7.5
2017-Jan-01 20:33N 50°30' W 000°06'8 7.4
2017-Jan-01 19:32N 50°31' E 000°05'7 7.4
2017-Jan-01 18:33N 50°34' E 000°16'7 7.2
2017-Jan-01 17:33N 50°35' E 000°27'7 6.3
2017-Jan-01 16:30N 50°38' E 000°37'20 4.5
2017-Jan-01 12:11N 50°50' E 001°02'3 3.8
2017-Jan-01 11:20N 50°52' E 001°06'3 4.4
2017-Jan-01 10:33N 50°54' E 001°10'5 5.5
2017-Jan-01 09:33N 50°58' E 001°16'  

Dump ship's entire track history